Terminal Aerodrome Forecast
Issued by NWS Louisville, KY

Home | Current Version | Previous Version | Text Only | Print | Product List | Glossary On
Versions: 1 2 3 4 5 6 7 8 9 10 11 12 13 14 15 16 17 18 19 20 21 22 23 24 25 26 27 28 29 30 31 32 33 34 35 36 37 38 39 40 41 42 43 44 45 46 47 48 49 50
000
FTUS43 KLMK 170523
TAFBWG
TAF
KBWG 170523Z 1706/1806 21010KT P6SM VCSH BKN060
     FM170900 21009KT P6SM VCSH BKN018
      TEMPO 1712/1715 BKN008
     FM171800 26009KT P6SM BKN040 PROB30 1721/1801 6SM -TSRA
      BKN035CB
     FM180100 25006KT P6SM SCT050=

USA.gov is the U.S. government's official web portal to all federal, state and local government web resources and services.